Orlando International Airport
KMCO : rendu visible

Aérodrome :











RETROUVEZ-NOUS SUR...

 
LOGIN :

S'inscrire | Disclaimer

   EN    FR    IT 

 









Légende :    VFR   VFR Marginal   IFR   IFR Intensif   IFR Très Intensif
Visi : 
Plafond : 
>= 8 km
>= 3000ft
5 à 8 km
1000 à 3000 ft
1500m à 5 km
500 à 1000 ft
800 à 1500m
200 à 500 ft
< 800m
< 200 ft
Symboles :   Orages  Brouillard  Fortes neiges  Fortes précipitations  Vent > 20 kt






- Altitude de l'aérodrome : 96 ft
- Code IATA : MCO


KMCO - Orlando International

DERNIER METAR :
  • 170953Z 32009KT 7SM OVC008 11/08 A2992 RMK SLP130 T01060083

METARs EXPIRÉS :
  • 170853Z 30011KT 6SM BR OVC006 10/08 A2992 RMK CIG 005V009 SLP131 T01000083 55001
  • 170753Z 31007KT 8SM OVC007 11/09 A2991 RMK CIG 006V010 SLP127 T01060089

TAF KMCO
Valide du 17 à 09h jusqu'au 18 à 12h UTC


170907Z 1709/1812 31010KT 6SM BR FEW005 OVC007
TEMPO 1712/1716 SCT008 OVC012
FM171600 33010KT P6SM SCT015 BKN025
FM171800 33011KT P6SM SCT030 BKN050
FM180200 34004KT P6SM SCT030 SCT300



MET'MAP, la Météo Aéronautique d'un coup d'oeil ! - Copyright ORBIFLY Décembre 2007 - Disclaimer

ORBIFLY MET'MAP TEAM :

Programmation & Développement : Alexandra Zaïnal
Conception & Développement : Baudouin d'Aumeries
Co-Programmation & Développement : Marc-Olivier Méhu
Soutien technique & logistique : Manuel Goepfert

Contact : metmap@orbifly.com




SOURCES & CREDITS :

   NOAA       Earth
Advisory